Rancho Taos, New Mexico
Current Conditions -  °F | °C
As of 5:15 PM on Friday 28 Nov 2014 (Local Time) from KSKX Reporting Station
Clear Clear  
Wind Chill: 46°   Ceiling: Unl
Heat Index: 48°   Visibility: 10mi
Dew Point: 19°   Wind: 6mph
Humidity: 32%   Direction: 180°S
Pressure: 30.15"   Gusts: NA
Location:  36.2692°N, 105.543°W
Report Text: KSKX 290015Z AUTO 18005KT 10SM CLR 09/M07 A3015 RMK AO1
Loading
Personal Weather Stations






























Interactive Weather Map New forecast layout! Learn more

10-Day Weather Forecast

Advertisements
Track Severe Weather on mobile